首页
METAR-TAF:

METAR-TAF

机场 :

坦帕國際機場

坦帕, 佛罗里达州, 美国

纬度: 27-57-41N, 经度: 082-32-25W, 海拔: 8米

当前天气观测

该预报发布于32分钟前的02:53 UTC
静风
温度 27°C
湿度 84%
气压 1019 hPa
能見度: 16.1公里
散云层高于2500英尺
多云层高于5000英尺
多云层高于25000英尺

METAR: KTPA 220253Z 00000KT 10SM SCT025 BKN050 BKN250 27/24 A3009 RMK AO2 LTG DSNT SW TSE09 SLP189 OCNL LTGIC DSNT SW CB DSNT SW 60034 T02670239 51023 $

时间: 23:25 (03:25 UTC)

预报

该预报发布于20分钟前的03:05 UTC
预报有效从22日的 03点(UTC)到 23日的 06点(UTC)
风速3节,风向多变
能見度: 10公里
散云层高于4000英尺
多云层高于10000英尺
从 22日的 0500点(UTC)
风速3节,风向多变
能見度: 10公里
少量云层高于4000英尺
散云层高于10000英尺
多云层高于25000英尺
从 22日的 1400点(UTC)
风速6节,风向东南
能見度: 10公里
散云层高于2500英尺
散云层高于25000英尺
从 22日的 1900点(UTC)
风速6节,风向西转西南
能見度: 10公里
散云层高于4000英尺
多云层高于25000英尺
从 23日的 0200点(UTC)
风速4节,风向多变
能見度: 10公里
少量云层高于4000英尺
多云层高于25000英尺

TAF: KTPA 220305Z 2203/2306 VRB03KT P6SM SCT040 BKN100 FM220500 VRB03KT P6SM FEW040 SCT100 BKN250 FM221400 14006KT P6SM SCT025 SCT250 FM221900 25006KT P6SM SCT040 BKN250 FM230200 VRB04KT P6SM FEW040 BKN250

超过4000个机场的气象观测和天气预报(METAR&TAF报告)。

可查询的气象台以黄色和红色小点在地图上表示。

将鼠标移到小点上方,可查看气象台名称。

然后点击查看天气观测和预报。

如需切换地图:点击带黑十字的绿色按钮放大地图;点击带横线的绿色按钮缩小地图;或者点击绿色箭头查看邻近地区的地图。


METAR-TAF: